Time;durP1;ratioP1;P1;durP2;ratioP2;P2;SDS_P1;SDS_P2;PMS_P1;PMS_P2;Temp;Humidity;BMP_temperature;BMP_pressure;BME280_temperature;BME280_humidity;BME280_pressure;Samples;Min_cycle;Max_cycle;Signal;HPM_P1;HPM_P2
2020/12/28 00:00:14;;;;;;;35.77;23.60;;;5.40;92.50;;;;;;5095833;28;20032;-60
2020/12/28 00:02:40;;;;;;;32.20;23.37;;;5.30;92.50;;;;;;5095815;28;20092;-60
2020/12/28 00:05:10;;;;;;;31.17;23.93;;;5.30;92.50;;;;;;5097743;28;20032;-60
2020/12/28 00:07:37;;;;;;;31.40;24.73;;;5.30;92.80;;;;;;5092078;28;20035;-57
2020/12/28 00:10:11;;;;;;;31.53;24.13;;;5.30;92.50;;;;;;5092445;28;20032;-58
2020/12/28 00:12:49;;;;;;;31.97;24.50;;;5.20;92.50;;;;;;5096468;28;20030;-56
2020/12/28 00:15:26;;;;;;;34.93;25.03;;;5.10;92.80;;;;;;5100018;28;20043;-57
2020/12/28 00:17:54;;;;;;;31.43;22.33;;;5.20;93.00;;;;;;5091534;28;20126;-60
2020/12/28 00:20:21;;;;;;;29.57;23.23;;;5.20;92.90;;;;;;5097971;28;20039;-59
2020/12/28 00:22:47;;;;;;;31.50;25.27;;;5.10;92.80;;;;;;5097814;28;20104;-57
2020/12/28 00:25:14;;;;;;;30.47;23.80;;;5.10;92.40;;;;;;5099346;28;20039;-60
2020/12/28 00:27:40;;;;;;;33.60;24.63;;;5.00;92.70;;;;;;5095825;28;20050;-61
2020/12/28 00:30:07;;;;;;;32.40;24.03;;;5.00;92.60;;;;;;5105253;27;20036;-60
2020/12/28 00:32:36;;;;;;;29.93;23.67;;;4.90;92.50;;;;;;5101104;27;20036;-61
2020/12/28 00:35:04;;;;;;;31.27;23.90;;;4.90;92.90;;;;;;5103171;27;20060;-61
2020/12/28 00:37:33;;;;;;;27.87;21.30;;;4.90;92.90;;;;;;5083322;28;20036;-61
2020/12/28 00:39:58;;;;;;;30.40;23.20;;;4.90;93.40;;;;;;5099420;28;20034;-61
2020/12/28 00:42:24;;;;;;;29.50;22.23;;;4.80;93.20;;;;;;5092946;28;20043;-60
2020/12/28 00:44:53;;;;;;;28.97;24.13;;;4.70;93.60;;;;;;5102034;28;20066;-60
2020/12/28 00:47:20;;;;;;;31.47;24.33;;;4.80;94.00;;;;;;5095395;27;20125;-61
2020/12/28 00:49:45;;;;;;;30.70;23.63;;;4.70;93.80;;;;;;5103834;28;20035;-60
2020/12/28 00:52:11;;;;;;;28.60;23.30;;;4.70;93.60;;;;;;5101446;28;20057;-61
2020/12/28 00:54:36;;;;;;;30.17;24.00;;;4.60;94.10;;;;;;5101254;28;20032;-61
2020/12/28 00:57:02;;;;;;;30.40;23.57;;;4.50;94.40;;;;;;5094529;28;20865;-60
2020/12/28 00:59:28;;;;;;;29.13;22.63;;;4.50;94.30;;;;;;5101184;28;20035;-59
2020/12/28 01:01:58;;;;;;;27.87;21.87;;;4.40;95.50;;;;;;5099295;28;20378;-60
2020/12/28 01:04:24;;;;;;;27.53;21.40;;;4.30;95.40;;;;;;5097238;28;20127;-61
2020/12/28 01:06:50;;;;;;;27.70;21.90;;;4.20;96.00;;;;;;5093892;27;20115;-61
2020/12/28 01:09:17;;;;;;;22.30;19.67;;;4.10;97.30;;;;;;5097138;28;20127;-61
2020/12/28 01:11:42;;;;;;;23.87;19.00;;;4.10;97.40;;;;;;5099892;28;20041;-61
2020/12/28 01:14:10;;;;;;;23.07;19.33;;;3.90;97.20;;;;;;5085222;28;20312;-61
2020/12/28 01:16:35;;;;;;;23.87;19.87;;;3.90;97.50;;;;;;5099050;28;20498;-61
2020/12/28 01:22:23;;;;;;;22.90;19.60;;;4.00;98.20;;;;;;5075610;27;20538;-61
2020/12/28 01:24:48;;;;;;;19.57;17.37;;;4.00;98.60;;;;;;5097145;28;20039;-61
2020/12/28 01:27:14;;;;;;;22.37;17.23;;;4.00;98.20;;;;;;5089892;28;20114;-61
2020/12/28 01:29:40;;;;;;;20.70;17.97;;;4.00;98.00;;;;;;5095246;28;20040;-61
2020/12/28 01:32:05;;;;;;;19.17;14.63;;;4.00;97.30;;;;;;5100683;28;20400;-61
2020/12/28 01:34:31;;;;;;;18.93;16.40;;;3.80;98.00;;;;;;5088929;27;20040;-61
2020/12/28 01:36:56;;;;;;;16.67;14.00;;;3.80;98.00;;;;;;5100247;28;20035;-61
2020/12/28 01:39:22;;;;;;;17.00;14.07;;;3.80;98.40;;;;;;5096594;27;20472;-62
2020/12/28 01:41:48;;;;;;;16.47;13.43;;;3.70;97.30;;;;;;5104459;28;20063;-61
2020/12/28 01:44:13;;;;;;;15.97;13.80;;;3.70;98.40;;;;;;5100193;27;20055;-61
2020/12/28 01:46:39;;;;;;;17.07;13.83;;;3.70;98.60;;;;;;5103021;28;20050;-61
2020/12/28 01:49:05;;;;;;;14.70;11.83;;;3.70;98.40;;;;;;5084791;28;20507;-62
2020/12/28 01:51:30;;;;;;;14.07;11.17;;;3.70;98.80;;;;;;5096613;27;20474;-61
2020/12/28 01:53:56;;;;;;;14.40;12.23;;;3.80;98.80;;;;;;5099125;28;20052;-61
2020/12/28 01:56:24;;;;;;;13.03;11.50;;;3.70;98.40;;;;;;5091232;28;20430;-61
2020/12/28 01:58:50;;;;;;;12.10;10.27;;;3.70;98.70;;;;;;5097343;28;20055;-61
2020/12/28 02:01:17;;;;;;;13.67;11.23;;;3.60;98.70;;;;;;5094487;28;20047;-61
2020/12/28 02:03:43;;;;;;;12.50;9.97;;;3.60;98.10;;;;;;5101325;28;20043;-61
2020/12/28 02:06:09;;;;;;;12.83;10.77;;;3.60;98.80;;;;;;5074392;28;20370;-61
2020/12/28 02:08:34;;;;;;;14.97;11.50;;;3.70;99.10;;;;;;5092964;28;20066;-61
2020/12/28 02:11:00;;;;;;;13.30;10.83;;;3.70;98.50;;;;;;5096956;28;20039;-60
2020/12/28 02:13:26;;;;;;;12.87;11.47;;;3.70;99.30;;;;;;5095997;28;20032;-61
2020/12/28 02:15:52;;;;;;;13.13;11.20;;;3.70;99.20;;;;;;5095381;28;20035;-61
2020/12/28 02:18:24;;;;;;;11.50;10.30;;;3.70;98.50;;;;;;5097411;28;20048;-61
2020/12/28 02:20:49;;;;;;;12.00;10.23;;;3.70;98.60;;;;;;5074189;28;20677;-60
2020/12/28 02:23:15;;;;;;;11.97;9.70;;;3.70;99.20;;;;;;5099655;28;20062;-61
2020/12/28 02:25:41;;;;;;;12.87;9.83;;;3.70;98.90;;;;;;5097225;28;20028;-61
2020/12/28 02:28:07;;;;;;;12.33;11.03;;;3.70;99.10;;;;;;5091531;28;20053;-61
2020/12/28 02:30:35;;;;;;;10.27;8.73;;;3.70;99.10;;;;;;5099700;27;20046;-60
2020/12/28 02:33:00;;;;;;;10.30;8.73;;;3.80;99.10;;;;;;5099793;28;20044;-61
2020/12/28 02:35:26;;;;;;;9.30;8.30;;;3.60;98.50;;;;;;5085417;28;20484;-59
2020/12/28 02:44:35;;;;;;;10.47;8.43;;;3.70;98.40;;;;;;4994717;28;20754;-59
2020/12/28 02:47:00;;;;;;;9.67;8.63;;;3.60;98.20;;;;;;5097773;28;20048;-59
2020/12/28 02:49:27;;;;;;;11.07;9.13;;;3.70;98.90;;;;;;5096192;27;20047;-60
2020/12/28 02:51:52;;;;;;;11.77;9.40;;;3.70;99.10;;;;;;5096789;28;20036;-60
2020/12/28 02:54:18;;;;;;;10.67;9.13;;;3.60;98.30;;;;;;5093515;28;20035;-60
2020/12/28 02:56:44;;;;;;;11.47;9.13;;;3.60;98.60;;;;;;5095013;28;20127;-60
2020/12/28 02:59:09;;;;;;;12.00;9.90;;;3.60;98.00;;;;;;5091450;27;20027;-60
2020/12/28 03:01:53;;;;;;;11.13;9.10;;;3.60;98.50;;;;;;5098856;27;20040;-60
2020/12/28 03:04:19;;;;;;;10.00;8.73;;;3.70;98.70;;;;;;5092893;27;20051;-60
2020/12/28 03:06:44;;;;;;;10.93;9.60;;;3.60;98.90;;;;;;5095470;28;20109;-60
2020/12/28 03:09:10;;;;;;;11.70;9.60;;;3.60;99.00;;;;;;5095050;28;20043;-59
2020/12/28 03:11:36;;;;;;;10.77;9.33;;;3.60;98.30;;;;;;5100507;27;20039;-61
2020/12/28 03:14:04;;;;;;;10.47;9.43;;;3.70;98.60;;;;;;5097787;28;20122;-61
2020/12/28 03:16:45;;;;;;;11.33;9.10;;;3.60;98.80;;;;;;5099275;28;20054;-62
2020/12/28 03:19:10;;;;;;;10.10;8.87;;;3.60;99.20;;;;;;5083189;28;20098;-61
2020/12/28 03:21:36;;;;;;;9.87;8.87;;;3.60;98.20;;;;;;5094690;28;20575;-62
2020/12/28 03:24:02;;;;;;;10.00;9.00;;;3.60;98.40;;;;;;5095048;28;20125;-62
2020/12/28 03:26:27;;;;;;;9.93;8.93;;;3.70;98.80;;;;;;5096644;28;20028;-61
2020/12/28 03:28:53;;;;;;;11.23;10.03;;;3.60;98.20;;;;;;5097695;28;20043;-61
2020/12/28 03:31:19;;;;;;;10.37;9.20;;;3.60;98.10;;;;;;5093909;28;20040;-62
2020/12/28 03:33:44;;;;;;;10.47;9.37;;;3.60;98.40;;;;;;5092212;28;20369;-61
2020/12/28 03:36:10;;;;;;;9.67;8.67;;;3.50;98.30;;;;;;5098750;28;20493;-61
2020/12/28 03:38:35;;;;;;;9.67;8.77;;;3.50;98.60;;;;;;5093720;28;20039;-61
2020/12/28 03:41:01;;;;;;;10.20;9.20;;;3.50;98.00;;;;;;5094396;28;20044;-62
2020/12/28 03:43:26;;;;;;;10.10;9.10;;;3.50;98.10;;;;;;5095786;28;20036;-62
2020/12/28 03:45:52;;;;;;;9.30;8.40;;;3.50;98.60;;;;;;5092559;28;20062;-61
2020/12/28 03:48:18;;;;;;;9.00;8.17;;;3.60;98.30;;;;;;5080092;28;20047;-62
2020/12/28 03:50:43;;;;;;;9.47;8.57;;;3.50;97.90;;;;;;5097849;28;20122;-62
2020/12/28 03:53:09;;;;;;;8.93;8.03;;;3.50;97.90;;;;;;5083490;28;20616;-62
2020/12/28 03:55:34;;;;;;;9.63;8.43;;;3.50;97.90;;;;;;5097164;28;20408;-62
2020/12/28 03:58:00;;;;;;;8.60;7.80;;;3.60;98.20;;;;;;5103208;28;20031;-62
2020/12/28 04:00:26;;;;;;;8.03;7.03;;;3.60;97.80;;;;;;5099041;28;20752;-62
2020/12/28 04:02:51;;;;;;;8.33;7.53;;;3.50;97.80;;;;;;5103644;28;20054;-62
2020/12/28 04:05:17;;;;;;;8.77;7.87;;;3.60;97.90;;;;;;5087261;28;20562;-62
2020/12/28 04:07:43;;;;;;;9.50;7.93;;;3.60;97.80;;;;;;5101395;28;20392;-62
2020/12/28 04:10:09;;;;;;;7.13;6.47;;;3.50;98.10;;;;;;5095318;28;20047;-61
2020/12/28 04:12:35;;;;;;;7.67;6.87;;;3.40;97.90;;;;;;5105099;28;20040;-62
2020/12/28 04:15:00;;;;;;;7.47;6.67;;;3.40;98.30;;;;;;5084424;28;20386;-62
2020/12/28 04:17:27;;;;;;;7.13;6.43;;;3.40;98.70;;;;;;5104462;27;20075;-62
2020/12/28 04:19:52;;;;;;;7.10;6.20;;;3.40;97.90;;;;;;5102134;28;20081;-61
2020/12/28 04:22:18;;;;;;;6.97;6.27;;;3.40;98.40;;;;;;5094032;28;20043;-62
2020/12/28 04:24:44;;;;;;;6.80;6.03;;;3.50;98.60;;;;;;5101621;28;20554;-61
2020/12/28 04:27:09;;;;;;;4.87;4.47;;;3.50;98.90;;;;;;5093200;27;20444;-62
2020/12/28 04:29:38;;;;;;;5.93;5.33;;;3.30;98.50;;;;;;5108069;28;20039;-62
2020/12/28 04:32:04;;;;;;;5.10;4.60;;;3.40;99.90;;;;;;5098576;27;20047;-62
2020/12/28 04:34:29;;;;;;;6.23;5.63;;;3.30;99.60;;;;;;5105496;28;20032;-62
2020/12/28 04:36:55;;;;;;;5.33;4.83;;;3.40;99.60;;;;;;5099909;27;20035;-62
2020/12/28 04:39:21;;;;;;;5.20;4.70;;;3.40;99.70;;;;;;5100581;28;20066;-62
2020/12/28 04:41:46;;;;;;;4.80;4.40;;;3.30;99.90;;;;;;5094603;27;20048;-62
2020/12/28 04:44:13;;;;;;;4.87;4.37;;;3.40;99.70;;;;;;5100516;28;20492;-62
2020/12/28 04:46:40;;;;;;;5.80;4.80;;;3.40;99.30;;;;;;5101847;28;20660;-62
2020/12/28 04:49:06;;;;;;;4.50;4.10;;;3.40;99.40;;;;;;5106396;28;20107;-63
2020/12/28 04:51:32;;;;;;;4.70;4.20;;;3.40;99.20;;;;;;5093787;27;20493;-62
2020/12/28 04:53:58;;;;;;;4.70;4.20;;;3.40;99.60;;;;;;5103352;28;20042;-62
2020/12/28 04:56:24;;;;;;;4.50;3.80;;;3.40;99.30;;;;;;5098377;28;20036;-62
2020/12/28 04:58:49;;;;;;;4.13;3.70;;;3.30;97.80;;;;;;5097463;28;20042;-62
2020/12/28 05:01:15;;;;;;;3.33;3.03;;;3.40;99.30;;;;;;5100516;27;20050;-62
2020/12/28 05:03:41;;;;;;;4.23;3.27;;;3.40;98.40;;;;;;5098039;28;20450;-62
2020/12/28 05:06:07;;;;;;;3.40;3.10;;;3.30;99.30;;;;;;5099702;27;20034;-62
2020/12/28 05:08:33;;;;;;;3.00;2.70;;;3.30;99.60;;;;;;5096047;27;20036;-62
2020/12/28 05:11:09;;;;;;;2.60;2.40;;;3.30;99.40;;;;;;5103081;28;20383;-62
2020/12/28 05:13:35;;;;;;;3.00;2.43;;;3.30;99.20;;;;;;5097878;28;20618;-62
2020/12/28 05:16:01;;;;;;;2.93;2.50;;;3.40;99.40;;;;;;5103132;28;20058;-63
2020/12/28 05:18:27;;;;;;;2.80;2.60;;;3.40;98.90;;;;;;5099363;27;20043;-62
2020/12/28 05:20:53;;;;;;;3.03;2.83;;;3.30;98.50;;;;;;5103412;28;20036;-62
2020/12/28 05:23:19;;;;;;;4.03;2.77;;;3.40;98.70;;;;;;5097668;28;20124;-62
2020/12/28 05:25:50;;;;;;;2.80;2.60;;;3.40;98.80;;;;;;5101706;28;20071;-62
2020/12/28 05:28:19;;;;;;;4.07;2.57;;;3.40;99.30;;;;;;5098440;28;20040;-61
2020/12/28 05:30:46;;;;;;;3.03;2.53;;;3.40;98.80;;;;;;5103986;28;20054;-62
2020/12/28 05:33:13;;;;;;;1.97;1.80;;;3.50;99.10;;;;;;5098909;28;20035;-62
2020/12/28 05:36:22;;;;;;;3.20;2.90;;;3.40;98.80;;;;;;5102202;27;20122;-62
2020/12/28 05:38:48;;;;;;;2.80;2.13;;;3.50;99.40;;;;;;5059601;28;20047;-61
2020/12/28 05:41:14;;;;;;;3.80;2.70;;;3.40;99.20;;;;;;5103152;28;20052;-62
2020/12/28 05:43:39;;;;;;;2.50;2.00;;;3.50;99.20;;;;;;5096138;27;20469;-62
2020/12/28 05:46:05;;;;;;;2.70;2.27;;;3.40;99.00;;;;;;5101266;28;20040;-63
2020/12/28 05:48:35;;;;;;;2.53;2.13;;;3.40;98.80;;;;;;5095144;28;20056;-63
2020/12/28 05:51:01;;;;;;;2.90;2.60;;;3.40;98.60;;;;;;5101116;28;20063;-63
2020/12/28 05:53:27;;;;;;;3.10;2.80;;;3.40;98.80;;;;;;5084107;28;20040;-62
2020/12/28 05:55:54;;;;;;;2.90;2.67;;;3.40;98.90;;;;;;5094427;28;20044;-62
2020/12/28 05:58:20;;;;;;;2.93;2.57;;;3.40;99.20;;;;;;5101972;27;20373;-62
2020/12/28 06:00:48;;;;;;;2.80;2.60;;;3.50;99.50;;;;;;5094717;28;20089;-62
2020/12/28 06:03:26;;;;;;;3.07;2.80;;;3.50;99.20;;;;;;5097259;28;20046;-62
2020/12/28 06:05:56;;;;;;;3.30;2.43;;;3.60;99.00;;;;;;5090838;28;20465;-63
2020/12/28 06:08:22;;;;;;;2.40;2.20;;;3.60;99.10;;;;;;5102228;28;20043;-62
2020/12/28 06:10:48;;;;;;;3.97;2.70;;;3.50;98.80;;;;;;5090551;28;20050;-62
2020/12/28 06:13:24;;;;;;;3.57;3.27;;;3.50;98.60;;;;;;5099957;28;20040;-62
2020/12/28 06:16:04;;;;;;;4.10;3.77;;;3.50;99.00;;;;;;5094750;28;20058;-62
2020/12/28 06:18:30;;;;;;;5.67;4.63;;;3.60;99.60;;;;;;5094664;28;20032;-61
2020/12/28 06:20:56;;;;;;;6.03;3.93;;;3.50;98.90;;;;;;5090541;28;20512;-62
2020/12/28 06:23:28;;;;;;;6.77;4.47;;;3.60;98.60;;;;;;5096304;27;20047;-62
2020/12/28 06:25:55;;;;;;;6.17;4.83;;;3.50;98.20;;;;;;5097130;28;20046;-61
2020/12/28 06:28:25;;;;;;;6.03;4.90;;;3.50;99.00;;;;;;5092814;28;20058;-62
2020/12/28 06:30:51;;;;;;;6.20;4.93;;;3.40;99.20;;;;;;5095193;28;20777;-62
2020/12/28 06:34:01;;;;;;;6.20;5.60;;;3.50;99.20;;;;;;5094385;28;20477;-64
2020/12/28 06:36:26;;;;;;;7.07;5.83;;;3.40;99.60;;;;;;5066080;28;20077;-63
2020/12/28 06:38:59;;;;;;;6.30;5.23;;;3.30;99.80;;;;;;5103395;28;20043;-63
2020/12/28 06:41:30;;;;;;;6.23;5.63;;;3.40;99.80;;;;;;5098190;28;20063;-63
2020/12/28 06:44:00;;;;;;;7.03;6.20;;;3.40;99.70;;;;;;5095187;28;20554;-63
2020/12/28 06:46:27;;;;;;;7.33;6.40;;;3.40;99.90;;;;;;5091539;28;20062;-63
2020/12/28 06:48:53;;;;;;;6.37;5.77;;;3.40;99.60;;;;;;5099573;28;20040;-63
2020/12/28 06:54:42;;;;;;;6.47;5.57;;;3.40;99.90;;;;;;5046200;28;20073;-62
2020/12/28 06:57:08;;;;;;;5.27;4.63;;;2.90;99.90;;;;;;5091433;28;20186;-62
2020/12/28 06:59:35;;;;;;;5.17;4.73;;;2.70;99.90;;;;;;5095384;28;20070;-62
2020/12/28 07:02:02;;;;;;;6.50;5.90;;;2.80;99.90;;;;;;5081391;28;20040;-63
2020/12/28 07:04:33;;;;;;;6.13;5.53;;;2.80;99.90;;;;;;5100360;28;20043;-63
2020/12/28 07:07:00;;;;;;;5.77;5.27;;;2.50;99.90;;;;;;5090774;28;20040;-63
2020/12/28 07:09:26;;;;;;;6.87;6.17;;;2.40;99.90;;;;;;5094970;28;20500;-63
2020/12/28 07:11:52;;;;;;;6.20;5.60;;;2.30;99.90;;;;;;5093574;28;20040;-63
2020/12/28 07:14:21;;;;;;;6.43;5.83;;;1.90;99.90;;;;;;5094944;28;20122;-63
2020/12/28 07:16:56;;;;;;;6.37;5.77;;;2.50;99.90;;;;;;5096166;28;20111;-63
2020/12/28 07:19:25;;;;;;;5.70;5.20;;;2.70;99.90;;;;;;5091979;28;20122;-63
2020/12/28 07:21:52;;;;;;;6.40;5.80;;;2.60;99.90;;;;;;5097607;28;20056;-62
2020/12/28 07:24:18;;;;;;;5.97;5.47;;;2.60;99.90;;;;;;5080584;28;20040;-62
2020/12/28 07:26:44;;;;;;;6.97;6.27;;;2.50;99.90;;;;;;5097567;28;20040;-63
2020/12/28 07:29:19;;;;;;;6.40;5.80;;;2.50;99.90;;;;;;5094804;28;20404;-63
2020/12/28 07:31:46;;;;;;;7.90;6.90;;;2.30;99.90;;;;;;5099358;28;20373;-63
2020/12/28 07:34:19;;;;;;;10.30;8.20;;;2.10;99.90;;;;;;5095158;28;20464;-63
2020/12/28 07:36:51;;;;;;;8.93;8.03;;;2.50;99.90;;;;;;5102446;28;20493;-64
2020/12/28 07:39:18;;;;;;;8.37;7.57;;;2.10;99.90;;;;;;5097154;28;20071;-64
2020/12/28 07:41:44;;;;;;;9.40;8.40;;;2.10;99.90;;;;;;5103544;28;20043;-63
2020/12/28 07:44:14;;;;;;;9.90;8.87;;;2.20;99.90;;;;;;5095281;28;20077;-63
2020/12/28 07:47:02;;;;;;;8.83;8.00;;;2.40;99.90;;;;;;5083720;28;20441;-63
2020/12/28 07:49:31;;;;;;;8.00;7.10;;;2.50;99.90;;;;;;5095220;28;20082;-63
2020/12/28 07:52:17;;;;;;;9.83;7.97;;;2.20;99.90;;;;;;5092783;28;20023;-63
2020/12/28 07:55:05;;;;;;;6.80;6.20;;;2.40;99.90;;;;;;5054254;28;20035;-60
2020/12/28 07:57:56;;;;;;;9.47;6.40;;;2.10;99.90;;;;;;5084356;28;20517;-60
2020/12/28 08:00:27;;;;;;;7.13;6.17;;;2.20;99.90;;;;;;5093465;28;20051;-63
2020/12/28 08:03:01;;;;;;;7.27;6.30;;;2.10;99.90;;;;;;5098302;28;20067;-63
2020/12/28 08:05:27;;;;;;;6.97;5.93;;;2.40;99.90;;;;;;5088525;28;20489;-63
2020/12/28 08:07:53;;;;;;;6.13;5.53;;;2.50;99.90;;;;;;5095351;28;20071;-63
2020/12/28 08:10:19;;;;;;;6.60;5.80;;;2.30;99.90;;;;;;5095069;28;20052;-63
2020/12/28 08:12:53;;;;;;;7.70;6.17;;;2.40;99.90;;;;;;5094948;28;20064;-62
2020/12/28 08:15:32;;;;;;;6.90;6.20;;;2.20;99.90;;;;;;5091428;28;20508;-63
2020/12/28 08:18:08;;;;;;;6.03;5.40;;;2.40;99.90;;;;;;5093594;28;20043;-63
2020/12/28 08:20:35;;;;;;;6.37;5.77;;;2.30;99.90;;;;;;5091962;28;20046;-63
2020/12/28 08:23:01;;;;;;;7.07;6.37;;;2.50;99.90;;;;;;5095751;28;20036;-62
2020/12/28 08:25:28;;;;;;;7.10;6.17;;;2.70;99.90;;;;;;5096997;28;20043;-63
2020/12/28 08:27:59;;;;;;;6.67;5.43;;;2.60;99.90;;;;;;5083799;28;20070;-63
2020/12/28 08:30:29;;;;;;;5.57;5.07;;;2.60;99.90;;;;;;5093509;28;20391;-63
2020/12/28 08:33:02;;;;;;;6.20;5.53;;;2.60;99.90;;;;;;5098031;28;20043;-63
2020/12/28 08:35:28;;;;;;;7.30;5.27;;;2.80;99.90;;;;;;5096077;28;20040;-63
2020/12/28 08:37:59;;;;;;;6.47;4.70;;;2.80;99.90;;;;;;5102011;27;20036;-63
2020/12/28 08:40:25;;;;;;;5.07;4.10;;;2.70;99.90;;;;;;5096565;28;20063;-63
2020/12/28 08:42:56;;;;;;;6.93;5.40;;;2.90;99.90;;;;;;5095337;27;20072;-63
2020/12/28 08:45:26;;;;;;;5.87;5.07;;;2.80;99.90;;;;;;5098946;28;20127;-63
2020/12/28 08:47:58;;;;;;;5.70;4.40;;;2.60;99.90;;;;;;5096811;27;21619;-62
2020/12/28 08:50:26;;;;;;;5.77;4.47;;;2.50;99.90;;;;;;5083917;28;20507;-63
2020/12/28 08:52:57;;;;;;;4.20;3.73;;;2.50;99.90;;;;;;5093046;27;20032;-60
2020/12/28 08:55:23;;;;;;;4.27;3.80;;;2.60;99.90;;;;;;5100493;28;20032;-62
2020/12/28 08:57:59;;;;;;;5.47;4.53;;;2.90;99.90;;;;;;5096520;27;20098;-62
2020/12/28 09:00:27;;;;;;;5.43;4.13;;;2.90;99.90;;;;;;5098640;28;20056;-62
2020/12/28 09:02:57;;;;;;;4.80;3.90;;;2.90;99.90;;;;;;5097151;28;20048;-62
2020/12/28 09:05:24;;;;;;;4.30;3.73;;;2.90;99.90;;;;;;5103112;27;20469;-62
2020/12/28 09:07:50;;;;;;;12.37;10.43;;;2.90;99.90;;;;;;5093866;27;20049;-62
2020/12/28 09:10:16;;;;;;;6.47;4.80;;;2.90;99.90;;;;;;5098732;28;20432;-62
2020/12/28 09:12:43;;;;;;;4.30;3.90;;;3.10;99.90;;;;;;5089898;28;20036;-62
2020/12/28 09:15:09;;;;;;;4.83;4.10;;;3.10;99.90;;;;;;5099117;28;20032;-63
2020/12/28 09:17:35;;;;;;;5.60;3.73;;;2.90;99.90;;;;;;5100557;27;20047;-63
2020/12/28 09:20:02;;;;;;;4.10;3.70;;;2.90;99.90;;;;;;5100926;28;20100;-64
2020/12/28 09:22:28;;;;;;;4.50;4.03;;;3.00;99.90;;;;;;5097307;28;20143;-64
2020/12/28 09:24:53;;;;;;;5.37;4.17;;;3.10;99.90;;;;;;5099724;28;20044;-62
2020/12/28 09:27:19;;;;;;;6.97;4.83;;;3.10;99.90;;;;;;5095013;28;20039;-69
2020/12/28 09:29:45;;;;;;;6.60;4.30;;;2.80;99.90;;;;;;5098994;27;20063;-69
2020/12/28 09:32:10;;;;;;;5.57;4.43;;;2.80;99.90;;;;;;5099722;28;20050;-65
2020/12/28 09:34:36;;;;;;;5.13;4.10;;;2.90;99.90;;;;;;5095418;28;20042;-65
2020/12/28 09:37:04;;;;;;;6.83;4.97;;;2.90;99.90;;;;;;5100833;28;20040;-66
2020/12/28 09:39:30;;;;;;;5.10;4.47;;;2.90;99.90;;;;;;5095813;28;20032;-65
2020/12/28 09:41:56;;;;;;;7.10;5.90;;;3.00;99.90;;;;;;5099656;28;20155;-64
2020/12/28 09:44:22;;;;;;;6.27;5.67;;;3.00;99.90;;;;;;5096556;28;20616;-65
2020/12/28 09:46:50;;;;;;;6.80;5.50;;;3.10;99.90;;;;;;5100136;28;20048;-65
2020/12/28 09:49:16;;;;;;;6.63;6.03;;;2.90;99.90;;;;;;5096213;28;20042;-64
2020/12/28 09:51:46;;;;;;;7.00;6.30;;;3.00;99.90;;;;;;5100113;28;20489;-65
2020/12/28 09:54:12;;;;;;;6.93;6.27;;;3.00;99.90;;;;;;5095743;28;20100;-65
2020/12/28 09:56:38;;;;;;;6.67;5.97;;;3.10;99.90;;;;;;5099210;28;20438;-66
2020/12/28 09:59:03;;;;;;;6.07;5.30;;;3.10;99.90;;;;;;5095301;28;20043;-65
2020/12/28 10:01:29;;;;;;;7.10;5.63;;;3.30;99.90;;;;;;5082895;28;20461;-65
2020/12/28 10:03:54;;;;;;;6.07;5.17;;;3.30;99.90;;;;;;5096203;28;20513;-65
2020/12/28 10:06:34;;;;;;;7.50;5.17;;;3.40;99.90;;;;;;5098485;28;20646;-65
2020/12/28 10:09:04;;;;;;;5.77;5.17;;;3.30;99.90;;;;;;5096339;28;20067;-66
2020/12/28 10:11:30;;;;;;;5.03;4.53;;;3.40;99.90;;;;;;5100466;28;20522;-65
2020/12/28 10:13:56;;;;;;;5.30;4.77;;;3.30;99.90;;;;;;5098422;28;20075;-66
2020/12/28 10:16:26;;;;;;;4.97;4.47;;;3.40;99.90;;;;;;5099841;28;20164;-65
2020/12/28 10:18:55;;;;;;;5.10;4.37;;;3.50;99.90;;;;;;5100382;28;20123;-65
2020/12/28 10:21:23;;;;;;;5.30;4.77;;;3.50;99.90;;;;;;5079962;28;20074;-65
2020/12/28 10:23:49;;;;;;;4.77;4.27;;;3.60;99.90;;;;;;5099729;28;20116;-64
2020/12/28 10:29:36;;;;;;;5.90;4.20;;;3.50;99.90;;;;;;5031909;28;20614;-64
2020/12/28 10:32:04;;;;;;;6.03;5.00;;;3.50;99.90;;;;;;5097969;28;20123;-62
2020/12/28 10:34:30;;;;;;;12.07;4.80;;;3.50;99.90;;;;;;5107714;28;20032;-64
2020/12/28 10:40:18;;;;;;;5.20;4.40;;;3.70;99.90;;;;;;4997760;28;20126;-65
2020/12/28 10:42:44;;;;;;;6.23;4.23;;;3.70;99.90;;;;;;5083637;28;20173;-63
2020/12/28 10:45:10;;;;;;;4.67;3.73;;;3.80;99.90;;;;;;5096102;28;20049;-64
2020/12/28 10:47:35;;;;;;;5.40;4.40;;;3.60;99.90;;;;;;5095329;28;20031;-63
2020/12/28 10:50:01;;;;;;;5.90;4.70;;;3.80;99.90;;;;;;5098652;27;20054;-63
2020/12/28 10:52:27;;;;;;;5.63;4.60;;;3.90;99.90;;;;;;5093545;28;20040;-63
2020/12/28 10:54:52;;;;;;;5.13;4.63;;;4.00;99.90;;;;;;5099411;27;20032;-63
2020/12/28 10:57:18;;;;;;;7.03;4.90;;;4.00;99.90;;;;;;5098100;27;20108;-62
2020/12/28 10:59:44;;;;;;;4.87;4.37;;;4.00;99.90;;;;;;5101644;28;20126;-62
2020/12/28 11:02:12;;;;;;;6.27;4.77;;;4.00;99.90;;;;;;5100901;27;20133;-48
2020/12/28 11:04:38;;;;;;;7.17;5.13;;;3.90;99.90;;;;;;5089283;28;20481;-50
2020/12/28 11:07:03;;;;;;;6.63;5.53;;;3.80;99.90;;;;;;5092702;27;20035;-50
2020/12/28 11:09:29;;;;;;;8.63;5.67;;;3.80;99.90;;;;;;5104587;27;20059;-61
2020/12/28 11:11:55;;;;;;;6.23;5.63;;;3.70;99.90;;;;;;5095459;28;20044;-61
2020/12/28 11:14:20;;;;;;;9.27;7.37;;;3.70;99.90;;;;;;5097945;27;20047;-61
2020/12/28 11:16:47;;;;;;;12.17;9.50;;;3.80;99.90;;;;;;5091069;27;20500;-61
2020/12/28 11:19:13;;;;;;;13.77;8.70;;;3.90;99.90;;;;;;5102327;27;20063;-61
2020/12/28 11:21:40;;;;;;;11.37;8.47;;;4.00;99.90;;;;;;5091935;28;20134;-61
2020/12/28 11:24:06;;;;;;;11.03;8.90;;;3.70;99.90;;;;;;5100096;28;20122;-59
2020/12/28 11:26:33;;;;;;;11.07;9.77;;;3.60;99.90;;;;;;5086427;28;20126;-60
2020/12/28 11:29:00;;;;;;;12.63;10.67;;;3.70;99.90;;;;;;5097063;28;20048;-60
2020/12/28 11:31:26;;;;;;;12.33;9.27;;;3.90;99.90;;;;;;5098484;27;20137;-60
2020/12/28 11:33:52;;;;;;;15.10;11.83;;;3.90;99.90;;;;;;5094597;28;20050;-60
2020/12/28 11:36:18;;;;;;;13.07;9.90;;;3.90;99.90;;;;;;5098912;28;20031;-60
2020/12/28 11:38:45;;;;;;;21.90;15.50;;;3.90;99.90;;;;;;5095857;28;20067;-60
2020/12/28 11:41:18;;;;;;;13.77;10.30;;;3.80;99.90;;;;;;5098571;28;20464;-60
2020/12/28 11:43:45;;;;;;;15.60;10.83;;;3.80;99.90;;;;;;5093638;28;20051;-61
2020/12/28 11:46:11;;;;;;;15.73;11.63;;;3.80;99.90;;;;;;5100261;28;20035;-60
2020/12/28 11:48:39;;;;;;;17.20;11.73;;;3.80;99.90;;;;;;5097135;28;20110;-60
2020/12/28 11:51:06;;;;;;;15.80;11.97;;;3.60;99.90;;;;;;5092829;28;20494;-59
2020/12/28 11:53:33;;;;;;;17.47;12.63;;;3.70;99.90;;;;;;5093340;28;20122;-60
2020/12/28 11:56:05;;;;;;;17.70;12.13;;;3.80;99.90;;;;;;5096915;28;20032;-60
2020/12/28 11:58:32;;;;;;;16.70;12.43;;;3.80;99.90;;;;;;5095537;28;20035;-60
2020/12/28 12:00:58;;;;;;;15.63;12.40;;;3.80;99.90;;;;;;5091069;28;20473;-60
2020/12/28 12:03:24;;;;;;;15.83;11.53;;;3.80;99.90;;;;;;5097209;28;20096;-59
2020/12/28 12:05:49;;;;;;;13.77;11.27;;;3.80;99.90;;;;;;5096705;28;20175;-60
2020/12/28 12:08:15;;;;;;;11.90;9.87;;;3.70;99.90;;;;;;5094144;28;20044;-60
2020/12/28 12:10:41;;;;;;;11.40;8.93;;;3.60;99.90;;;;;;5097748;28;20046;-59
2020/12/28 12:13:07;;;;;;;10.93;9.73;;;3.60;99.90;;;;;;5104118;28;20067;-59
2020/12/28 12:15:32;;;;;;;12.13;10.40;;;3.50;99.90;;;;;;5097979;27;20419;-58
2020/12/28 12:21:20;;;;;;;14.03;10.50;;;3.40;99.90;;;;;;5049354;27;20524;-60
2020/12/28 12:23:45;;;;;;;12.90;11.10;;;3.40;99.90;;;;;;5104728;28;20063;-60
2020/12/28 12:26:11;;;;;;;12.80;10.47;;;3.30;99.90;;;;;;5078562;28;20487;-60
2020/12/28 12:28:37;;;;;;;12.10;10.30;;;3.20;99.90;;;;;;5103353;27;20597;-60
2020/12/28 12:31:03;;;;;;;13.97;10.90;;;3.30;99.90;;;;;;5102061;27;20055;-59
2020/12/28 12:33:28;;;;;;;19.90;17.40;;;3.20;99.90;;;;;;5104589;28;20063;-61
2020/12/28 12:35:54;;;;;;;16.23;11.37;;;3.20;99.90;;;;;;5097300;28;20035;-60
2020/12/28 12:38:20;;;;;;;15.00;11.53;;;3.40;99.90;;;;;;5100017;27;20433;-60
2020/12/28 12:40:45;;;;;;;16.23;10.97;;;3.50;99.90;;;;;;5093258;28;20032;-60
2020/12/28 12:43:11;;;;;;;15.47;11.90;;;3.30;99.90;;;;;;5112782;27;20117;-60
2020/12/28 12:45:37;;;;;;;16.57;12.03;;;3.20;99.90;;;;;;5098846;28;20081;-60
2020/12/28 12:48:02;;;;;;;15.57;11.63;;;3.20;99.90;;;;;;5103407;27;20035;-58
2020/12/28 12:50:28;;;;;;;15.90;11.97;;;3.30;99.90;;;;;;5100756;27;20027;-60
2020/12/28 12:52:54;;;;;;;14.27;11.63;;;3.20;99.90;;;;;;5101770;28;20043;-60
2020/12/28 12:55:19;;;;;;;16.57;12.00;;;3.30;99.90;;;;;;5098936;27;20112;-60
2020/12/28 12:57:45;;;;;;;16.03;11.40;;;3.20;99.90;;;;;;5101350;27;20039;-60
2020/12/28 13:00:10;;;;;;;17.97;12.63;;;3.30;99.90;;;;;;5085481;28;20063;-60
2020/12/28 13:02:41;;;;;;;15.03;12.30;;;3.30;99.90;;;;;;5099586;28;20067;-60
2020/12/28 13:05:08;;;;;;;16.90;12.00;;;3.30;99.90;;;;;;5102979;27;20050;-60
2020/12/28 13:07:35;;;;;;;18.53;13.60;;;3.30;99.90;;;;;;5100102;27;20031;-60
2020/12/28 13:10:01;;;;;;;16.23;12.83;;;3.50;99.90;;;;;;5103821;27;20444;-60
2020/12/28 13:12:27;;;;;;;17.33;12.40;;;3.60;99.90;;;;;;5098200;27;20036;-60
2020/12/28 13:14:53;;;;;;;16.27;12.33;;;3.60;99.90;;;;;;5083860;28;20048;-60